CDT,Max TemperatureF,Mean TemperatureF,Min TemperatureF,Max Dew PointF,MeanDew PointF,Min DewpointF,Max Humidity, Mean Humidity, Min Humidity, Max Sea Level PressureIn, Mean Sea Level PressureIn, Min Sea Level PressureIn, Max VisibilityMiles, Mean VisibilityMiles, Min VisibilityMiles, Max Wind SpeedMPH, Mean Wind SpeedMPH, Max Gust SpeedMPH,PrecipitationIn, CloudCover, Events, WindDirDegrees
2013-8-1,96,87,78,73,72,70,78,63,44,30.05,30.00,29.94,10,10,9,14,6,20,0.00,0,,81
2013-8-2,100,88,75,72,69,66,83,57,35,29.98,29.95,29.90,10,10,10,15,9,22,0.00,0,,165
2013-8-3,98,86,75,72,68,64,73,55,34,30.06,30.00,29.94,10,10,10,15,7,20,0.00,0,,150
2013-8-4,98,86,75,70,68,64,78,57,35,30.10,30.03,29.97,10,10,10,12,7,20,0.00,0,,164
2013-8-5,100,88,75,70,66,63,74,49,31,30.02,29.96,29.87,10,10,10,16,9,23,0.00,0,,187
2013-8-6,100,88,75,70,66,63,69,48,33,29.93,29.89,29.83,10,10,10,17,9,22,0.00,0,,198
2013-8-7,100,88,77,70,66,64,65,47,32,29.93,29.86,29.80,10,10,9,15,9,21,0.00,0,,188
2013-8-8,100,89,78,72,66,63,62,49,33,29.93,29.86,29.80,10,10,10,15,7,23,0.00,0,,180
2013-8-9,100,88,77,70,63,59,70,46,25,29.98,29.93,29.88,10,10,10,15,8,21,0.00,0,,162
2013-8-10,96,84,73,72,68,66,78,58,41,30.06,30.01,29.97,10,10,10,13,6,16,0.00,0,,354
2013-8-11,98,86,73,72,68,66,78,59,37,30.09,30.04,29.99,10,10,10,14,5,25,0.00,1,Thunderstorm,169
2013-8-12,98,86,75,70,67,66,73,57,35,30.07,30.02,29.94,10,10,10,18,7,25,0.00,0,,192
2013-8-13,93,83,73,72,68,66,78,65,46,30.04,29.98,29.93,10,10,10,16,6,22,0.01,2,Thunderstorm,82
2013-8-14,87,79,71,66,64,57,78,62,43,30.07,30.02,29.98,10,10,10,18,9,22,0.01,3,,75
2013-8-15,87,74,62,57,55,54,72,52,33,30.12,30.06,29.99,10,10,10,14,7,,0.00,0,,101
2013-8-16,84,75,66,57,56,54,68,55,40,30.12,30.05,30.02,10,10,10,14,7,17,0.00,1,,97
2013-8-17,87,74,60,55,55,54,77,54,33,30.12,30.08,30.01,10,10,10,15,7,23,0.00,0,,53
2013-8-18,91,78,64,64,58,54,78,54,28,30.13,30.07,30.02,10,10,7,14,6,20,0.00,1,,88
2013-8-19,93,80,66,64,59,54,83,52,26,30.12,30.05,29.98,10,10,10,14,8,17,0.00,0,,112
2013-8-20,96,80,66,63,58,54,73,47,26,30.08,30.03,29.98,10,10,10,9,7,,0.00,0,,121
2013-8-21,96,82,69,64,59,57,73,47,28,30.12,30.07,30.01,10,10,10,12,7,16,0.00,1,,129
2013-8-22,96,84,73,66,63,59,69,49,32,30.11,30.04,29.96,10,10,5,12,6,,0.00,2,,129
2013-8-23,98,86,73,68,65,63,73,53,32,30.06,30.01,29.94,10,10,10,20,5,23,0.04,1,Thunderstorm,73
2013-8-24,98,86,73,70,65,61,73,52,30,30.11,30.06,30.01,10,10,10,17,8,22,0.00,0,,99
2013-8-25,96,84,73,68,64,61,73,52,32,30.18,30.14,30.10,10,10,10,16,8,21,0.00,0,,103
2013-8-26,96,84,71,66,62,57,73,51,28,30.22,30.15,30.08,10,10,10,18,8,24,0.00,1,,120
2013-8-27,96,84,73,66,64,61,73,54,36,30.16,30.09,30.03,10,10,10,13,6,17,0.00,2,,201
2013-8-28,98,86,73,64,62,61,73,48,29,30.12,30.06,30.01,10,10,10,12,2,17,0.00,0,,237
2013-8-29,100,86,73,64,62,61,69,46,27,30.09,30.03,29.97,10,10,10,10,4,18,0.00,1,,138
2013-8-30,102,88,73,64,62,61,65,43,27,30.04,29.97,29.89,10,10,10,10,6,,0.00,0,,160
2013-8-31,104,88,73,70,64,61,69,48,27,29.95,29.88,29.82,10,10,10,21,6,26,0.02,0,Thunderstorm,149